Hauptseite
METAR-TAF:

METAR-TAF

Flughäfen :

Flughafen Nouakchott-Oumtounsy

Nouakchott, Mauretanien

Breite: 18-18-36N, Länge: 015-58-11W, Höhe: 3 m

Beobachtung

Neuester Wetterbericht von vor 15 Minuten, um 14:00 UTC
Wind 20 kt aus West/Nordwest
Temperatur 31°C
Luftfeuchtigkeit 55%
Luftdruck 1007 hPa
Sichtweite: 6000 m

METAR: GQNO 081400Z 30020KT 6000 NSC 31/21 Q1007 TEMPO 4000 BLSA

Zeit: 14:15 (14:15 UTC)

Prognose

Neuester Wetterbericht von vor 3 Stunden und 15 Minuten, um 11:00 UTC
Gültige Prognose vom 08 um 12 UTC bis 09 um 18 UTC
Wind 16 kt aus Nordwest
Sichtweite: 8000 m
Wahrscheinlichkeit 40% :
Zeitweise
vom 09 um 01 UTC bis 09 um 08 UTC
Durchbrochene Bewölkung in der Höhe von 1000 ft
Übergehend zu
vom 09 um 07 UTC bis 09 um 10 UTC
Wind 12 kt aus West/Südwest

TAF: GQNO 081100Z 0812/0918 32016KT 8000 NSC PROB40 TEMPO 0901/0908 BKN010 BECMG 0907/0910 24012KT

Wetterbeobachtungen und Prognosen von mehr als 4000 Flughäfen (METAR und TAF Bericht).

Die verfügbaren Stationen werden durch gelbe und rote Markierungen auf der Karte dargestellt.

Führen Sie die Maus auf sie, um den Namen der Station zu sehen.

Darauf klicken, um die Beobachtung von Wetterbeobachtungen und Prognosen zu sehen.

Um die Karte zu ändern : klicken Sie auf den grünen Tasten mit einem schwarzen Kreuz Zum Vergrößern, auf den grünen Button mit einem Gedankenstrich zu verkleinern, oder auf die grünen Pfeile für benachbarte Karten.


METAR-TAF: